createdAt,value
2019-04-07T00:00:18.639Z,87.10
2019-04-07T00:01:18.709Z,87.20
2019-04-07T00:02:18.622Z,87.00
2019-04-07T00:03:18.664Z,87.51
2019-04-07T00:04:18.644Z,86.90
2019-04-07T00:05:18.681Z,87.65
2019-04-07T00:06:19.067Z,88.23
2019-04-07T00:07:18.604Z,88.23
2019-04-07T00:08:18.566Z,87.45
2019-04-07T00:09:18.918Z,87.30
2019-04-07T00:10:19.136Z,87.45
2019-04-07T00:11:18.892Z,87.45
2019-04-07T00:12:18.855Z,88.26
2019-04-07T00:13:18.542Z,88.06
2019-04-07T00:14:18.477Z,88.26
2019-04-07T00:15:18.580Z,87.85
2019-04-07T00:16:18.550Z,88.17
2019-04-07T00:17:19.191Z,88.26
2019-04-07T00:18:19.108Z,88.26
2019-04-07T00:19:18.469Z,88.06
2019-04-07T00:20:18.701Z,88.98
2019-04-07T00:21:18.486Z,88.41
2019-04-07T00:22:18.435Z,88.17
2019-04-07T00:23:18.497Z,88.62
2019-04-07T00:24:18.379Z,88.41
2019-04-07T00:25:18.419Z,88.41
2019-04-07T00:26:18.395Z,88.51
2019-04-07T00:27:19.028Z,88.41
2019-04-07T00:28:18.459Z,88.17
2019-04-07T00:29:18.446Z,88.00
2019-04-07T00:30:18.304Z,87.76
2019-04-07T00:31:18.389Z,87.96
2019-04-07T00:32:18.328Z,88.20
2019-04-07T00:33:18.470Z,88.20
2019-04-07T00:34:18.294Z,88.26
2019-04-07T00:35:26.883Z,87.85
2019-04-07T00:36:19.254Z,88.51
2019-04-07T00:37:18.367Z,88.26
2019-04-07T00:38:18.239Z,88.20
2019-04-07T00:39:18.300Z,88.17
2019-04-07T00:40:18.555Z,88.31
2019-04-07T00:41:18.366Z,88.26
2019-04-07T00:42:18.219Z,88.62
2019-04-07T00:43:18.770Z,88.68
2019-04-07T00:44:18.904Z,88.37
2019-04-07T00:45:18.547Z,88.51
2019-04-07T00:46:18.176Z,88.92
2019-04-07T00:47:18.560Z,88.51
2019-04-07T00:48:18.119Z,88.92
2019-04-07T00:49:18.291Z,89.03
2019-04-07T00:50:18.306Z,88.51
2019-04-07T00:51:18.783Z,88.71
2019-04-07T00:52:18.226Z,88.62
2019-04-07T00:53:18.094Z,88.71
2019-04-07T00:54:18.054Z,88.82
2019-04-07T00:55:18.774Z,89.23
2019-04-07T00:56:18.308Z,89.03
2019-04-07T00:57:18.153Z,88.71
2019-04-07T00:58:18.034Z,88.86
2019-04-07T00:59:18.231Z,89.27
2019-04-07T01:00:18.273Z,89.27
2019-04-07T01:01:18.041Z,89.06
2019-04-07T01:02:17.997Z,89.27
2019-04-07T01:03:18.269Z,89.17
2019-04-07T01:04:17.995Z,89.06
2019-04-07T01:05:18.016Z,89.92
2019-04-07T01:06:17.912Z,89.98
2019-04-07T01:07:18.061Z,90.13
2019-04-07T01:08:18.009Z,89.92
2019-04-07T01:09:18.691Z,90.13
2019-04-07T01:10:18.318Z,89.62
2019-04-07T01:11:17.919Z,90.03
2019-04-07T01:12:18.265Z,90.13
2019-04-07T01:13:17.961Z,91.30
2019-04-07T01:14:18.189Z,91.20
2019-04-07T01:15:18.588Z,90.99
2019-04-07T01:16:17.803Z,91.09
2019-04-07T01:17:17.926Z,91.05
2019-04-07T01:18:18.116Z,91.82
2019-04-07T01:19:17.937Z,91.40
2019-04-07T01:20:17.811Z,91.20
2019-04-07T01:21:17.769Z,90.99
2019-04-07T01:22:17.771Z,91.61
2019-04-07T01:23:18.202Z,91.71
2019-04-07T01:24:17.737Z,91.91
2019-04-07T01:25:17.813Z,91.82
2019-04-07T01:26:17.718Z,91.65
2019-04-07T01:27:18.261Z,91.75
2019-04-07T01:28:17.677Z,91.75
2019-04-07T01:29:18.390Z,92.16
2019-04-07T01:30:18.310Z,91.75
2019-04-07T01:31:17.859Z,91.86
2019-04-07T01:32:17.627Z,92.06
2019-04-07T01:33:17.760Z,91.75
2019-04-07T01:34:17.646Z,91.75
2019-04-07T01:35:17.724Z,91.86
2019-04-07T01:36:18.200Z,92.06
2019-04-07T01:37:17.685Z,91.96
2019-04-07T01:38:17.908Z,91.90
2019-04-07T01:39:18.166Z,91.69
2019-04-07T01:40:17.697Z,92.10
2019-04-07T01:41:17.631Z,91.80
2019-04-07T01:42:17.951Z,91.90
2019-04-07T01:43:17.632Z,91.90
2019-04-07T01:44:17.990Z,92.14
2019-04-07T01:45:18.073Z,92.14
2019-04-07T01:46:17.635Z,92.25
2019-04-07T01:47:17.755Z,92.04
2019-04-07T01:48:17.645Z,92.04
2019-04-07T01:49:17.586Z,91.99
2019-04-07T01:50:17.446Z,92.55
2019-04-07T01:51:17.731Z,92.40
2019-04-07T01:52:17.411Z,92.19
2019-04-07T01:53:18.006Z,92.80
2019-04-07T01:54:17.554Z,92.80
2019-04-07T01:55:18.080Z,93.01
2019-04-07T01:56:17.445Z,92.40
2019-04-07T01:57:18.376Z,93.01
2019-04-07T01:58:17.401Z,93.01
2019-04-07T01:59:17.424Z,93.32
2019-04-07T02:00:17.353Z,93.46
2019-04-07T02:01:17.424Z,94.08
2019-04-07T02:02:17.482Z,94.18
2019-04-07T02:03:17.550Z,93.98
2019-04-07T02:04:17.277Z,94.59
2019-04-07T02:05:17.414Z,94.54
2019-04-07T02:06:17.811Z,94.18
2019-04-07T02:07:17.366Z,94.74
2019-04-07T02:08:17.236Z,94.74
2019-04-07T02:09:17.312Z,94.90
2019-04-07T02:10:17.259Z,95.36
2019-04-07T02:11:17.299Z,95.36
2019-04-07T02:12:17.194Z,95.46
2019-04-07T02:13:17.484Z,95.46
2019-04-07T02:14:17.175Z,94.99
2019-04-07T02:15:17.428Z,94.64
2019-04-07T02:16:17.158Z,94.64
2019-04-07T02:17:17.355Z,94.78
2019-04-07T02:18:17.675Z,94.48
2019-04-07T02:19:17.496Z,94.74
2019-04-07T02:20:17.678Z,94.27
2019-04-07T02:21:17.385Z,94.78
2019-04-07T02:22:17.095Z,95.61
2019-04-07T02:23:17.460Z,95.30
2019-04-07T02:24:17.061Z,95.40
2019-04-07T02:25:17.319Z,96.73
2019-04-07T02:26:17.042Z,97.25
2019-04-07T02:27:17.221Z,96.84
2019-04-07T02:28:17.604Z,97.05
2019-04-07T02:29:17.120Z,97.05
2019-04-07T02:30:16.995Z,96.94
2019-04-07T02:31:17.239Z,97.05
2019-04-07T02:32:17.439Z,97.05
2019-04-07T02:33:18.103Z,96.84
2019-04-07T02:34:17.729Z,96.94
2019-04-07T02:35:17.061Z,96.94
2019-04-07T02:36:24.757Z,97.05
2019-04-07T02:37:17.927Z,96.94
2019-04-07T02:38:17.721Z,97.30
2019-04-07T02:39:18.073Z,96.43
2019-04-07T02:40:17.842Z,96.73
2019-04-07T02:41:17.814Z,96.27
2019-04-07T02:42:17.150Z,96.68
2019-04-07T02:43:16.857Z,96.37
2019-04-07T02:44:17.945Z,96.17
2019-04-07T02:45:17.107Z,96.58
2019-04-07T02:46:17.200Z,96.68
2019-04-07T02:47:16.805Z,96.37
2019-04-07T02:48:16.854Z,96.47
2019-04-07T02:49:17.819Z,96.52
2019-04-07T02:50:17.744Z,96.78
2019-04-07T02:51:16.795Z,96.27
2019-04-07T02:52:16.881Z,96.72
2019-04-07T02:53:16.767Z,96.83
2019-04-07T02:54:17.501Z,96.72
2019-04-07T02:55:16.736Z,96.52
2019-04-07T02:56:17.855Z,96.93
2019-04-07T02:57:16.847Z,96.88
2019-04-07T02:58:17.867Z,96.77
2019-04-07T02:59:16.682Z,97.08
2019-04-07T03:00:16.732Z,96.25
2019-04-07T03:01:16.670Z,96.56
2019-04-07T03:02:17.785Z,96.46
2019-04-07T03:03:17.157Z,96.46
2019-04-07T03:04:16.751Z,96.46
2019-04-07T03:05:16.627Z,96.50
2019-04-07T03:06:32.570Z,96.46
2019-04-07T03:07:17.708Z,97.08
2019-04-07T03:08:17.285Z,96.81
2019-04-07T03:09:16.571Z,97.02
2019-04-07T03:10:17.039Z,97.13
2019-04-07T03:11:16.558Z,97.13
2019-04-07T03:12:16.598Z,98.36
2019-04-07T03:13:16.902Z,98.46
2019-04-07T03:15:17.582Z,98.93
2019-04-07T03:16:17.293Z,98.57
2019-04-07T03:17:16.531Z,98.46
2019-04-07T03:18:16.591Z,98.57
2019-04-07T03:19:17.038Z,98.25
2019-04-07T03:20:16.864Z,98.52
2019-04-07T03:21:17.031Z,98.36
2019-04-07T03:22:16.497Z,98.46
2019-04-07T03:23:16.452Z,98.36
2019-04-07T03:24:17.066Z,98.57
2019-04-07T03:25:17.199Z,98.57
2019-04-07T03:26:16.499Z,98.97
2019-04-07T03:27:16.389Z,98.57
2019-04-07T03:28:16.441Z,98.57
2019-04-07T03:29:16.354Z,98.46
2019-04-07T03:30:17.835Z,98.46
2019-04-07T03:31:17.715Z,98.46
2019-04-07T03:32:19.028Z,98.46
2019-04-07T03:33:19.225Z,98.41
2019-04-07T03:34:18.445Z,97.99
2019-04-07T03:35:19.807Z,98.05
2019-04-07T03:36:20.493Z,97.95
2019-04-07T03:37:32.256Z,98.25
2019-04-07T03:38:18.763Z,98.50
2019-04-07T03:39:17.128Z,98.41
2019-04-07T03:40:16.233Z,98.77
2019-04-07T03:41:16.305Z,98.50
2019-04-07T03:42:16.216Z,98.50
2019-04-07T03:43:16.312Z,99.13
2019-04-07T03:44:16.414Z,98.92
2019-04-07T03:45:16.215Z,99.13
2019-04-07T03:46:16.195Z,99.13
2019-04-07T03:47:16.460Z,98.92
2019-04-07T03:48:16.168Z,98.50
2019-04-07T03:49:17.002Z,99.13
2019-04-07T03:50:16.490Z,98.92
2019-04-07T03:51:17.149Z,98.61
2019-04-07T03:52:16.979Z,98.50
2019-04-07T03:53:16.180Z,98.71
2019-04-07T03:54:16.663Z,98.76
2019-04-07T03:55:16.997Z,98.50
2019-04-07T03:56:16.057Z,99.07
2019-04-07T03:57:16.581Z,99.02
2019-04-07T03:58:16.301Z,99.17
2019-04-07T03:59:16.257Z,98.71
2019-04-07T04:00:16.861Z,98.97
2019-04-07T04:01:16.128Z,98.50
2019-04-07T04:02:15.999Z,98.82
2019-04-07T04:03:16.773Z,98.55
2019-04-07T04:04:15.999Z,98.82
2019-04-07T04:05:16.086Z,99.17
2019-04-07T04:06:15.952Z,99.13
2019-04-07T04:07:27.537Z,98.76
2019-04-07T04:08:16.936Z,99.13
2019-04-07T04:09:15.981Z,98.76
2019-04-07T04:10:16.037Z,98.50
2019-04-07T04:11:16.153Z,98.66
2019-04-07T04:12:17.039Z,99.33
2019-04-07T04:13:16.571Z,99.38
2019-04-07T04:14:16.503Z,98.97
2019-04-07T04:15:16.794Z,98.76
2019-04-07T04:16:15.997Z,98.97
2019-04-07T04:17:16.445Z,98.86
2019-04-07T04:18:16.184Z,99.27
2019-04-07T04:19:15.841Z,99.07
2019-04-07T04:20:16.100Z,99.69
2019-04-07T04:21:16.412Z,99.54
2019-04-07T04:22:15.786Z,99.33
2019-04-07T04:23:15.869Z,99.13
2019-04-07T04:24:16.754Z,99.07
2019-04-07T04:25:15.813Z,99.48
2019-04-07T04:26:15.743Z,99.23
2019-04-07T04:27:15.802Z,99.33
2019-04-07T04:28:16.362Z,99.33
2019-04-07T04:29:16.828Z,99.43
2019-04-07T04:30:15.724Z,99.13
2019-04-07T04:31:15.726Z,99.13
2019-04-07T04:32:16.645Z,98.82
2019-04-07T04:33:15.981Z,98.71
2019-04-07T04:34:15.673Z,98.41
2019-04-07T04:35:15.816Z,98.61
2019-04-07T04:36:15.645Z,99.13
2019-04-07T04:37:15.664Z,98.50
2019-04-07T04:38:15.837Z,97.89
2019-04-07T04:39:18.694Z,97.58
2019-04-07T04:40:16.027Z,97.17
2019-04-07T04:41:16.793Z,97.06
2019-04-07T04:42:16.176Z,96.96
2019-04-07T04:43:15.742Z,97.42
2019-04-07T04:44:16.520Z,97.42
2019-04-07T04:45:15.849Z,97.21
2019-04-07T04:46:15.569Z,97.42
2019-04-07T04:47:16.641Z,97.11
2019-04-07T04:48:15.597Z,97.11
2019-04-07T04:49:15.567Z,97.11
2019-04-07T04:50:15.478Z,97.11
2019-04-07T04:51:16.339Z,97.11
2019-04-07T04:52:15.670Z,96.91
2019-04-07T04:53:15.582Z,97.21
2019-04-07T04:54:15.433Z,97.36
2019-04-07T04:55:16.549Z,97.42
2019-04-07T04:56:15.537Z,97.52
2019-04-07T04:57:15.489Z,97.77
2019-04-07T04:58:15.417Z,97.77
2019-04-07T04:59:15.418Z,97.63
2019-04-07T05:00:15.787Z,97.98
2019-04-07T05:01:15.375Z,97.94
2019-04-07T05:02:15.981Z,97.73
2019-04-07T05:03:15.998Z,97.83
2019-04-07T05:04:15.994Z,97.47
2019-04-07T05:05:15.347Z,97.67
2019-04-07T05:06:15.306Z,97.67
2019-04-07T05:07:15.696Z,97.67
2019-04-07T05:08:16.142Z,97.16
2019-04-07T05:09:15.389Z,97.16
2019-04-07T05:10:15.249Z,97.16
2019-04-07T05:11:15.862Z,97.36
2019-04-07T05:12:15.332Z,97.47
2019-04-07T05:13:15.989Z,97.67
2019-04-07T05:14:15.208Z,97.67
2019-04-07T05:15:15.305Z,97.16
2019-04-07T05:16:15.183Z,97.36
2019-04-07T05:17:15.379Z,97.26
2019-04-07T05:18:15.232Z,97.56
2019-04-07T05:19:15.236Z,97.16
2019-04-07T05:20:15.134Z,97.16
2019-04-07T05:21:15.247Z,97.36
2019-04-07T05:22:15.246Z,96.84
2019-04-07T05:23:15.225Z,97.26
2019-04-07T05:24:15.746Z,97.77
2019-04-07T05:25:15.174Z,97.47
2019-04-07T05:26:15.596Z,98.39
2019-04-07T05:27:15.117Z,98.19
2019-04-07T05:28:15.417Z,98.19
2019-04-07T05:29:15.863Z,97.88
2019-04-07T05:30:15.602Z,98.24
2019-04-07T05:31:15.111Z,98.24
2019-04-07T05:32:15.717Z,98.66
2019-04-07T05:33:15.391Z,97.31
2019-04-07T05:34:19.322Z,97.31
2019-04-07T05:35:16.064Z,97.21
2019-04-07T05:36:14.966Z,97.21
2019-04-07T05:37:15.051Z,97.78
2019-04-07T05:38:14.960Z,97.48
2019-04-07T05:39:15.289Z,96.96
2019-04-07T05:40:15.522Z,96.96
2019-04-07T05:41:15.629Z,96.75
2019-04-07T05:42:14.896Z,96.96
2019-04-07T05:43:15.133Z,96.09
2019-04-07T05:44:14.869Z,96.14
2019-04-07T05:45:15.037Z,95.93
2019-04-07T05:46:14.868Z,95.52
2019-04-07T05:47:15.533Z,95.83
2019-04-07T05:48:17.440Z,95.27
2019-04-07T05:49:16.261Z,95.78
2019-04-07T05:50:15.401Z,94.90
2019-04-07T05:51:14.928Z,94.96
2019-04-07T05:52:14.900Z,94.65
2019-04-07T05:53:14.897Z,95.17
2019-04-07T05:54:18.063Z,94.85
2019-04-07T05:55:15.189Z,95.06
2019-04-07T05:56:14.749Z,94.85
2019-04-07T05:57:15.013Z,94.92
2019-04-07T05:58:15.793Z,94.81
2019-04-07T05:59:15.663Z,94.81
2019-04-07T06:00:16.720Z,94.71
2019-04-07T06:01:17.083Z,95.12
2019-04-07T06:03:16.416Z,94.67
2019-04-07T06:04:18.185Z,94.36
2019-04-07T06:05:16.234Z,94.67
2019-04-07T06:06:14.874Z,94.36
2019-04-07T06:07:14.840Z,94.21
2019-04-07T06:08:26.850Z,93.70
2019-04-07T06:09:18.899Z,93.24
2019-04-07T06:10:15.390Z,93.14
2019-04-07T06:11:14.802Z,92.83
2019-04-07T06:12:14.683Z,92.73
2019-04-07T06:13:15.656Z,92.38
2019-04-07T06:14:16.590Z,92.21
2019-04-07T06:15:15.731Z,92.07
2019-04-07T06:16:15.196Z,91.61
2019-04-07T06:17:15.215Z,90.59
2019-04-07T06:18:15.002Z,90.38
2019-04-07T06:19:14.931Z,90.24
2019-04-07T06:20:15.890Z,90.18
2019-04-07T06:21:16.162Z,89.42
2019-04-07T06:22:17.465Z,89.42
2019-04-07T06:23:14.448Z,89.42
2019-04-07T06:24:15.523Z,89.37
2019-04-07T06:25:14.438Z,89.17
2019-04-07T06:26:15.086Z,88.66
2019-04-07T06:27:16.126Z,88.41
2019-04-07T06:28:17.215Z,88.31
2019-04-07T06:29:14.958Z,88.51
2019-04-07T06:30:14.400Z,87.76
2019-04-07T06:31:14.475Z,87.04
2019-04-07T06:32:14.434Z,86.52
2019-04-07T06:33:14.330Z,86.22
2019-04-07T06:34:14.452Z,86.73
2019-04-07T06:35:14.316Z,86.69
2019-04-07T06:36:17.517Z,86.28
2019-04-07T06:37:14.560Z,85.46
2019-04-07T06:38:14.484Z,85.01
2019-04-07T06:39:17.392Z,86.34
2019-04-07T06:40:14.392Z,85.72
2019-04-07T06:41:14.256Z,84.80
2019-04-07T06:42:14.332Z,84.60
2019-04-07T06:43:14.578Z,84.70
2019-04-07T06:44:19.369Z,84.97
2019-04-07T06:45:15.283Z,84.19
2019-04-07T06:46:14.416Z,84.50
2019-04-07T06:47:15.940Z,84.15
2019-04-07T06:48:14.910Z,84.25
2019-04-07T06:49:15.038Z,83.60
2019-04-07T06:50:15.692Z,83.39
2019-04-07T06:51:14.167Z,83.44
2019-04-07T06:52:14.707Z,83.70
2019-04-07T06:53:18.630Z,83.60
2019-04-07T06:54:18.521Z,82.89
2019-04-07T06:55:15.151Z,82.75
2019-04-07T06:56:14.332Z,82.75
2019-04-07T06:57:14.825Z,82.23
2019-04-07T06:58:14.184Z,81.99
2019-04-07T06:59:15.541Z,81.82
2019-04-07T07:00:14.093Z,81.68
2019-04-07T07:01:14.369Z,81.79
2019-04-07T07:02:14.277Z,81.34
2019-04-07T07:03:14.022Z,81.95
2019-04-07T07:04:14.046Z,80.87
2019-04-07T07:05:14.415Z,81.13
2019-04-07T07:06:17.077Z,80.93
2019-04-07T07:07:15.941Z,80.93
2019-04-07T07:08:14.065Z,80.11
2019-04-07T07:09:15.431Z,80.48
2019-04-07T07:10:25.769Z,79.66
2019-04-07T07:11:24.775Z,78.75
2019-04-07T07:12:23.490Z,79.66
2019-04-07T07:13:26.492Z,79.52
2019-04-07T07:14:30.058Z,78.27
2019-04-07T07:15:15.375Z,78.88
2019-04-07T07:16:15.820Z,78.06
2019-04-07T07:17:16.970Z,77.65
2019-04-07T07:18:14.212Z,77.65
2019-04-07T07:19:14.174Z,77.62
2019-04-07T07:20:13.969Z,77.31
2019-04-07T07:21:14.455Z,77.51
2019-04-07T07:22:16.045Z,77.31
2019-04-07T07:23:15.091Z,77.17
2019-04-07T07:24:15.669Z,77.17
2019-04-07T07:25:13.877Z,77.07
2019-04-07T07:26:13.776Z,75.85
2019-04-07T07:27:14.005Z,76.25
2019-04-07T07:28:13.758Z,75.81
2019-04-07T07:29:15.404Z,76.22
2019-04-07T07:30:17.503Z,76.42
2019-04-07T07:31:14.332Z,75.47
2019-04-07T07:32:13.736Z,74.65
2019-04-07T07:33:13.723Z,74.35
2019-04-07T07:34:14.316Z,73.80
2019-04-07T07:35:15.319Z,74.01
2019-04-07T07:36:17.352Z,72.89
2019-04-07T07:37:14.973Z,73.67
2019-04-07T07:38:13.700Z,72.75
2019-04-07T07:39:14.561Z,72.04
2019-04-07T07:40:16.604Z,72.45
2019-04-07T07:41:14.083Z,72.14
2019-04-07T07:42:13.763Z,72.75
2019-04-07T07:43:14.384Z,72.21
2019-04-07T07:44:13.565Z,71.91
2019-04-07T07:45:13.996Z,72.52
2019-04-07T07:46:17.751Z,72.52
2019-04-07T07:47:14.665Z,72.48
2019-04-07T07:48:13.537Z,72.48
2019-04-07T07:49:13.655Z,72.28
2019-04-07T07:50:13.604Z,71.26
2019-04-07T07:51:15.212Z,71.73
2019-04-07T07:52:16.552Z,70.82
2019-04-07T07:53:14.596Z,70.62
2019-04-07T07:54:14.772Z,70.38
2019-04-07T07:55:14.231Z,70.38
2019-04-07T07:56:14.290Z,71.20
2019-04-07T07:57:13.469Z,70.59
2019-04-07T07:58:13.904Z,70.48
2019-04-07T07:59:13.513Z,70.35
2019-04-07T08:00:13.397Z,70.15
2019-04-07T08:01:14.877Z,67.71
2019-04-07T08:02:16.796Z,67.81
2019-04-07T08:03:14.671Z,67.47
2019-04-07T08:04:13.983Z,68.39
2019-04-07T08:05:13.596Z,67.07
2019-04-07T08:06:13.326Z,67.27
2019-04-07T08:07:15.238Z,67.68
2019-04-07T08:08:15.007Z,67.27
2019-04-07T08:09:15.576Z,68.15
2019-04-07T08:10:14.708Z,67.95
2019-04-07T08:11:15.657Z,68.35
2019-04-07T08:12:13.258Z,68.05
2019-04-07T08:13:13.273Z,66.60
2019-04-07T08:14:16.652Z,66.80
2019-04-07T08:15:13.789Z,66.70
2019-04-07T08:16:13.206Z,67.61
2019-04-07T08:17:13.712Z,66.77
2019-04-07T08:18:13.210Z,66.67
2019-04-07T08:19:13.537Z,66.57
2019-04-07T08:20:13.167Z,65.45
2019-04-07T08:21:17.153Z,66.03
2019-04-07T08:22:26.389Z,65.53
2019-04-07T08:23:14.321Z,64.11
2019-04-07T08:24:16.419Z,65.02
2019-04-07T08:25:13.131Z,63.90
2019-04-07T08:26:13.421Z,64.41
2019-04-07T08:27:13.112Z,65.02
2019-04-07T08:28:13.546Z,65.39
2019-04-07T08:29:13.871Z,64.48
2019-04-07T08:30:13.883Z,64.38
2019-04-07T08:31:13.269Z,64.38
2019-04-07T08:32:13.309Z,64.15
2019-04-07T08:33:13.032Z,64.96
2019-04-07T08:34:13.146Z,64.04
2019-04-07T08:35:13.131Z,63.92
2019-04-07T08:36:14.200Z,63.51
2019-04-07T08:37:15.163Z,63.61
2019-04-07T08:38:13.928Z,62.70
2019-04-07T08:39:21.596Z,63.10
2019-04-07T08:40:14.064Z,62.19
2019-04-07T08:41:15.468Z,61.79
2019-04-07T08:42:17.498Z,61.16
2019-04-07T08:43:14.874Z,59.64
2019-04-07T08:44:12.912Z,60.05
2019-04-07T08:45:13.029Z,59.84
2019-04-07T08:46:13.655Z,59.51
2019-04-07T08:47:18.860Z,59.61
2019-04-07T08:48:13.886Z,59.51
2019-04-07T08:49:12.919Z,58.60
2019-04-07T08:50:13.314Z,57.87
2019-04-07T08:51:13.631Z,58.40
2019-04-07T08:52:13.063Z,57.76
2019-04-07T08:53:13.833Z,58.30
2019-04-07T08:54:15.740Z,57.56
2019-04-07T08:55:12.922Z,57.87
2019-04-07T08:56:13.003Z,57.56
2019-04-07T08:57:12.874Z,56.85
2019-04-07T08:58:24.455Z,57.14
2019-04-07T08:59:16.815Z,58.07
2019-04-07T09:00:15.068Z,57.43
2019-04-07T09:01:12.753Z,55.92
2019-04-07T09:02:12.800Z,55.72
2019-04-07T09:03:15.126Z,55.62
2019-04-07T09:04:15.138Z,54.81
2019-04-07T09:05:12.984Z,56.02
2019-04-07T09:06:13.013Z,54.51
2019-04-07T09:07:12.692Z,54.61
2019-04-07T09:08:12.754Z,55.72
2019-04-07T09:09:13.946Z,55.52
2019-04-07T09:10:12.762Z,56.12
2019-04-07T09:11:13.092Z,56.02
2019-04-07T09:12:12.691Z,55.82
2019-04-07T09:13:13.106Z,56.10
2019-04-07T09:14:14.747Z,55.39
2019-04-07T09:15:13.079Z,54.48
2019-04-07T09:16:15.094Z,54.38
2019-04-07T09:17:12.712Z,54.79
2019-04-07T09:18:14.943Z,54.89
2019-04-07T09:19:12.529Z,54.48
2019-04-07T09:20:13.463Z,54.56
2019-04-07T09:21:14.903Z,54.76
2019-04-07T09:22:12.814Z,54.66
2019-04-07T09:23:12.485Z,54.86
2019-04-07T09:24:12.628Z,54.56
2019-04-07T09:25:13.064Z,54.66
2019-04-07T09:26:12.558Z,54.63
2019-04-07T09:27:16.995Z,55.44
2019-04-07T09:28:14.266Z,53.32
2019-04-07T09:29:12.761Z,54.23
2019-04-07T09:30:12.484Z,54.03
2019-04-07T09:31:13.093Z,54.13
2019-04-07T09:32:12.529Z,53.83
2019-04-07T09:33:12.555Z,52.82
2019-04-07T09:34:12.874Z,53.63
2019-04-07T09:35:12.416Z,53.30
2019-04-07T09:36:12.416Z,53.70
2019-04-07T09:37:12.354Z,51.89
2019-04-07T09:38:12.498Z,52.59
2019-04-07T09:39:12.409Z,52.87
2019-04-07T09:40:13.692Z,53.50
2019-04-07T09:41:12.288Z,52.17
2019-04-07T09:42:12.414Z,52.26
2019-04-07T09:43:12.666Z,53.17
2019-04-07T09:44:12.539Z,51.56
2019-04-07T09:45:12.800Z,51.86
2019-04-07T09:46:12.289Z,52.04
2019-04-07T09:47:15.914Z,51.84
2019-04-07T09:48:12.401Z,51.43
2019-04-07T09:49:12.209Z,51.54
2019-04-07T09:50:12.321Z,51.51
2019-04-07T09:51:12.171Z,51.51
2019-04-07T09:52:14.914Z,51.31
2019-04-07T09:53:15.810Z,52.04
2019-04-07T09:54:12.324Z,52.51
2019-04-07T09:55:12.148Z,52.01
2019-04-07T09:56:12.953Z,51.31
2019-04-07T09:57:12.220Z,51.89
2019-04-07T09:58:12.272Z,51.49
2019-04-07T09:59:15.416Z,51.89
2019-04-07T10:00:14.325Z,52.57
2019-04-07T10:01:12.990Z,53.07
2019-04-07T10:02:12.478Z,51.46
2019-04-07T10:03:14.466Z,51.97
2019-04-07T10:04:12.218Z,51.97
2019-04-07T10:05:12.026Z,51.76
2019-04-07T10:06:12.215Z,51.66
2019-04-07T10:07:13.034Z,49.13
2019-04-07T10:08:13.852Z,50.53
2019-04-07T10:09:11.983Z,49.22
2019-04-07T10:10:14.483Z,50.53
2019-04-07T10:11:12.847Z,49.22
2019-04-07T10:12:12.772Z,49.83
2019-04-07T10:13:12.370Z,49.22
2019-04-07T10:14:12.664Z,49.51
2019-04-07T10:15:12.921Z,48.43
2019-04-07T10:16:12.094Z,49.80
2019-04-07T10:17:11.922Z,49.60
2019-04-07T10:18:12.097Z,49.40
2019-04-07T10:19:11.902Z,50.01
2019-04-07T10:20:12.363Z,49.48
2019-04-07T10:21:11.895Z,49.78
2019-04-07T10:22:12.436Z,47.88
2019-04-07T10:23:11.826Z,48.60
2019-04-07T10:24:12.152Z,49.28
2019-04-07T10:25:12.030Z,49.51
2019-04-07T10:26:11.846Z,49.88
2019-04-07T10:27:12.522Z,48.38
2019-04-07T10:28:12.891Z,47.38
2019-04-07T10:29:12.206Z,48.58
2019-04-07T10:30:11.925Z,47.97
2019-04-07T10:31:12.558Z,48.38
2019-04-07T10:32:12.475Z,47.77
2019-04-07T10:33:12.186Z,48.38
2019-04-07T10:34:13.277Z,48.58
2019-04-07T10:35:12.513Z,48.96
2019-04-07T10:36:11.815Z,49.46
2019-04-07T10:37:11.678Z,48.86
2019-04-07T10:38:12.568Z,49.76
2019-04-07T10:39:12.007Z,50.06
2019-04-07T10:40:18.898Z,47.23
2019-04-07T10:41:12.918Z,47.23
2019-04-07T10:42:12.477Z,47.13
2019-04-07T10:43:11.791Z,47.03
2019-04-07T10:44:11.705Z,46.62
2019-04-07T10:45:12.037Z,46.93
2019-04-07T10:46:12.366Z,48.13
2019-04-07T10:47:11.867Z,47.33
2019-04-07T10:48:12.030Z,46.93
2019-04-07T10:49:11.548Z,47.43
2019-04-07T10:50:11.637Z,46.93
2019-04-07T10:51:12.169Z,47.33
2019-04-07T10:52:11.654Z,45.83
2019-04-07T10:53:11.512Z,47.03
2019-04-07T10:54:11.532Z,47.33
2019-04-07T10:55:11.569Z,48.31
2019-04-07T10:56:12.517Z,48.51
2019-04-07T10:57:12.206Z,47.41
2019-04-07T10:58:11.596Z,47.31
2019-04-07T10:59:11.506Z,48.28
2019-04-07T11:00:11.500Z,46.18
2019-04-07T11:01:11.494Z,46.68
2019-04-07T11:02:11.950Z,45.58
2019-04-07T11:03:12.071Z,45.18
2019-04-07T11:04:11.500Z,44.28
2019-04-07T11:05:12.028Z,45.78
2019-04-07T11:06:11.642Z,47.38
2019-04-07T11:07:11.347Z,45.38
2019-04-07T11:08:11.677Z,44.68
2019-04-07T11:09:11.333Z,44.16
2019-04-07T11:10:11.585Z,46.66
2019-04-07T11:11:12.139Z,43.05
2019-04-07T11:12:11.398Z,44.88
2019-04-07T11:13:13.435Z,44.46
2019-04-07T11:14:11.370Z,45.48
2019-04-07T11:15:11.268Z,45.58
2019-04-07T11:16:11.424Z,45.16
2019-04-07T11:17:11.425Z,44.16
2019-04-07T11:18:11.288Z,45.76
2019-04-07T11:19:11.223Z,44.56
2019-04-07T11:20:11.655Z,44.76
2019-04-07T11:21:12.125Z,44.93
2019-04-07T11:22:11.209Z,44.56
2019-04-07T11:23:11.917Z,44.24
2019-04-07T11:24:11.238Z,43.85
2019-04-07T11:25:11.932Z,42.85
2019-04-07T11:26:11.316Z,43.96
2019-04-07T11:27:11.307Z,43.85
2019-04-07T11:28:11.182Z,43.55
2019-04-07T11:29:11.172Z,44.64
2019-04-07T11:30:11.494Z,43.54
2019-04-07T11:31:11.148Z,43.13
2019-04-07T11:32:12.026Z,43.33
2019-04-07T11:33:11.746Z,44.54
2019-04-07T11:34:11.133Z,44.32
2019-04-07T11:35:11.227Z,44.13
2019-04-07T11:36:11.114Z,45.01
2019-04-07T11:37:12.865Z,44.62
2019-04-07T11:38:11.147Z,44.84
2019-04-07T11:39:11.130Z,44.51
2019-04-07T11:40:11.727Z,45.51
2019-04-07T11:41:11.195Z,43.82
2019-04-07T11:42:11.826Z,44.49
2019-04-07T11:43:11.175Z,45.20
2019-04-07T11:44:11.713Z,44.29
2019-04-07T11:45:11.341Z,42.79
2019-04-07T11:46:10.974Z,43.21
2019-04-07T11:47:11.017Z,43.49
2019-04-07T11:48:10.986Z,42.79
2019-04-07T11:49:13.096Z,40.69
2019-04-07T11:50:10.995Z,43.29
2019-04-07T11:51:10.868Z,42.79
2019-04-07T11:52:11.488Z,42.99
2019-04-07T11:53:11.070Z,42.60
2019-04-07T11:54:10.930Z,43.70
2019-04-07T11:55:11.848Z,43.29
2019-04-07T11:56:11.501Z,43.59
2019-04-07T11:57:10.921Z,42.47
2019-04-07T11:58:15.539Z,41.38
2019-04-07T11:59:11.788Z,40.99
2019-04-07T12:00:12.335Z,41.67
2019-04-07T12:01:14.244Z,41.97
2019-04-07T12:02:10.878Z,42.18
2019-04-07T12:03:11.653Z,42.18
2019-04-07T12:04:11.222Z,42.77
2019-04-07T12:05:10.719Z,42.76
2019-04-07T12:06:11.637Z,42.76
2019-04-07T12:07:11.157Z,42.65
2019-04-07T12:08:11.499Z,42.65
2019-04-07T12:09:10.877Z,40.36
2019-04-07T12:10:11.455Z,41.85
2019-04-07T12:11:13.075Z,42.65
2019-04-07T12:12:11.448Z,42.95
2019-04-07T12:13:10.680Z,42.05
2019-04-07T12:14:10.733Z,41.46
2019-04-07T12:15:10.779Z,41.25
2019-04-07T12:16:10.680Z,40.95
2019-04-07T12:17:12.549Z,40.14
2019-04-07T12:18:14.964Z,42.03
2019-04-07T12:19:12.604Z,43.23
2019-04-07T12:20:10.897Z,42.03
2019-04-07T12:21:20.096Z,42.11
2019-04-07T12:22:13.835Z,42.32
2019-04-07T12:23:10.700Z,40.62
2019-04-07T12:24:10.699Z,41.91
2019-04-07T12:25:10.633Z,41.82
2019-04-07T12:26:10.485Z,40.81
2019-04-07T12:27:12.361Z,41.00
2019-04-07T12:28:14.703Z,40.20
2019-04-07T12:29:12.416Z,41.71
2019-04-07T12:30:10.461Z,40.52
2019-04-07T12:31:10.475Z,40.80
2019-04-07T12:32:10.470Z,41.69
2019-04-07T12:33:11.466Z,40.22
2019-04-07T12:34:14.031Z,42.59
2019-04-07T12:35:10.833Z,41.02
2019-04-07T12:36:10.382Z,42.71
2019-04-07T12:37:10.423Z,39.82
2019-04-07T12:38:12.321Z,40.81
2019-04-07T12:39:10.475Z,41.03
2019-04-07T12:40:10.917Z,42.43
2019-04-07T12:41:16.972Z,39.94
2019-04-07T12:42:11.403Z,41.82
2019-04-07T12:43:13.765Z,41.11
2019-04-07T12:44:10.433Z,42.79
2019-04-07T12:45:11.176Z,40.42
2019-04-07T12:46:11.109Z,39.92
2019-04-07T12:47:11.310Z,42.32
2019-04-07T12:48:10.308Z,40.70
2019-04-07T12:49:10.374Z,40.01
2019-04-07T12:50:10.592Z,40.72
2019-04-07T12:51:10.300Z,42.11
2019-04-07T12:52:10.219Z,40.32
2019-04-07T12:53:10.316Z,41.61
2019-04-07T12:54:10.409Z,41.89